sensor_id;sensor_type;location;lat;lon;timestamp;temperature;humidity
2751;DHT22;1383;48.362;10.908;2022-08-01T00:00:06;22.90;36.50
2751;DHT22;1383;48.362;10.908;2022-08-01T00:02:35;22.90;36.40
2751;DHT22;1383;48.362;10.908;2022-08-01T00:05:04;22.90;36.50
2751;DHT22;1383;48.362;10.908;2022-08-01T00:07:33;22.90;36.40
2751;DHT22;1383;48.362;10.908;2022-08-01T00:10:00;22.90;36.00
2751;DHT22;1383;48.362;10.908;2022-08-01T00:12:27;23.00;36.10
2751;DHT22;1383;48.362;10.908;2022-08-01T00:14:54;22.90;36.00
2751;DHT22;1383;48.362;10.908;2022-08-01T00:17:21;23.00;36.10
2751;DHT22;1383;48.362;10.908;2022-08-01T00:19:48;23.00;36.10
2751;DHT22;1383;48.362;10.908;2022-08-01T00:22:14;23.00;36.10
2751;DHT22;1383;48.362;10.908;2022-08-01T00:24:41;22.90;36.00
2751;DHT22;1383;48.362;10.908;2022-08-01T00:27:08;22.90;36.00
2751;DHT22;1383;48.362;10.908;2022-08-01T00:29:35;22.90;36.00
2751;DHT22;1383;48.362;10.908;2022-08-01T00:32:22;22.90;36.00
2751;DHT22;1383;48.362;10.908;2022-08-01T00:34:49;22.90;36.00
2751;DHT22;1383;48.362;10.908;2022-08-01T00:37:16;22.80;36.00
2751;DHT22;1383;48.362;10.908;2022-08-01T00:39:43;22.80;36.10
2751;DHT22;1383;48.362;10.908;2022-08-01T00:42:11;22.80;36.30
2751;DHT22;1383;48.362;10.908;2022-08-01T00:44:39;22.80;35.90
2751;DHT22;1383;48.362;10.908;2022-08-01T00:47:08;22.70;36.10
2751;DHT22;1383;48.362;10.908;2022-08-01T00:49:35;22.70;36.10
2751;DHT22;1383;48.362;10.908;2022-08-01T00:52:03;22.70;35.80
2751;DHT22;1383;48.362;10.908;2022-08-01T00:54:32;22.70;36.00
2751;DHT22;1383;48.362;10.908;2022-08-01T00:56:59;22.70;36.10
2751;DHT22;1383;48.362;10.908;2022-08-01T00:59:26;22.70;36.30
2751;DHT22;1383;48.362;10.908;2022-08-01T01:01:54;22.70;36.40
2751;DHT22;1383;48.362;10.908;2022-08-01T01:04:21;22.70;36.30
2751;DHT22;1383;48.362;10.908;2022-08-01T01:07:09;22.60;37.10
2751;DHT22;1383;48.362;10.908;2022-08-01T01:09:50;22.60;36.30
2751;DHT22;1383;48.362;10.908;2022-08-01T01:12:27;22.50;36.20
2751;DHT22;1383;48.362;10.908;2022-08-01T01:15:17;22.50;36.30
2751;DHT22;1383;48.362;10.908;2022-08-01T01:20:26;22.40;36.50
2751;DHT22;1383;48.362;10.908;2022-08-01T01:25:45;22.30;36.50
2751;DHT22;1383;48.362;10.908;2022-08-01T01:28:32;22.40;36.60
2751;DHT22;1383;48.362;10.908;2022-08-01T01:31:01;22.30;36.50
2751;DHT22;1383;48.362;10.908;2022-08-01T01:33:32;22.30;36.50
2751;DHT22;1383;48.362;10.908;2022-08-01T01:36:04;22.30;36.40
2751;DHT22;1383;48.362;10.908;2022-08-01T01:38:42;22.20;36.40
2751;DHT22;1383;48.362;10.908;2022-08-01T01:41:11;22.20;36.60
2751;DHT22;1383;48.362;10.908;2022-08-01T01:43:39;22.20;36.40
2751;DHT22;1383;48.362;10.908;2022-08-01T01:46:07;22.10;36.60
2751;DHT22;1383;48.362;10.908;2022-08-01T01:48:36;22.10;36.80
2751;DHT22;1383;48.362;10.908;2022-08-01T01:51:04;22.10;36.70
2751;DHT22;1383;48.362;10.908;2022-08-01T01:53:33;22.10;36.50
2751;DHT22;1383;48.362;10.908;2022-08-01T01:56:02;22.10;36.40
2751;DHT22;1383;48.362;10.908;2022-08-01T01:58:31;22.00;36.40
2751;DHT22;1383;48.362;10.908;2022-08-01T02:01:00;22.00;36.40
2751;DHT22;1383;48.362;10.908;2022-08-01T02:03:30;22.00;36.70
2751;DHT22;1383;48.362;10.908;2022-08-01T02:05:59;22.00;36.30
2751;DHT22;1383;48.362;10.908;2022-08-01T02:08:29;22.00;35.80
2751;DHT22;1383;48.362;10.908;2022-08-01T02:10:57;22.00;35.70
2751;DHT22;1383;48.362;10.908;2022-08-01T02:13:46;22.00;35.60
2751;DHT22;1383;48.362;10.908;2022-08-01T02:16:15;22.00;35.60
2751;DHT22;1383;48.362;10.908;2022-08-01T02:18:43;21.90;35.50
2751;DHT22;1383;48.362;10.908;2022-08-01T02:21:13;21.90;35.30
2751;DHT22;1383;48.362;10.908;2022-08-01T02:23:43;22.00;35.20
2751;DHT22;1383;48.362;10.908;2022-08-01T02:26:14;21.90;35.40
2751;DHT22;1383;48.362;10.908;2022-08-01T02:28:56;21.90;35.40
2751;DHT22;1383;48.362;10.908;2022-08-01T02:31:24;22.00;35.00
2751;DHT22;1383;48.362;10.908;2022-08-01T02:34:00;21.90;35.00
2751;DHT22;1383;48.362;10.908;2022-08-01T02:36:30;22.00;34.30
2751;DHT22;1383;48.362;10.908;2022-08-01T02:39:02;22.00;34.30
2751;DHT22;1383;48.362;10.908;2022-08-01T02:41:30;22.00;34.20
2751;DHT22;1383;48.362;10.908;2022-08-01T02:44:00;22.00;34.10
2751;DHT22;1383;48.362;10.908;2022-08-01T02:46:48;22.00;34.20
2751;DHT22;1383;48.362;10.908;2022-08-01T02:49:16;22.00;34.10
2751;DHT22;1383;48.362;10.908;2022-08-01T02:51:47;22.00;33.90
2751;DHT22;1383;48.362;10.908;2022-08-01T02:54:17;22.00;34.10
2751;DHT22;1383;48.362;10.908;2022-08-01T02:56:47;22.00;34.40
2751;DHT22;1383;48.362;10.908;2022-08-01T02:59:17;21.90;34.40
2751;DHT22;1383;48.362;10.908;2022-08-01T03:01:49;22.00;34.40
2751;DHT22;1383;48.362;10.908;2022-08-01T03:04:17;21.90;34.40
2751;DHT22;1383;48.362;10.908;2022-08-01T03:06:46;21.90;34.30
2751;DHT22;1383;48.362;10.908;2022-08-01T03:09:14;22.00;34.20
2751;DHT22;1383;48.362;10.908;2022-08-01T03:11:43;21.90;34.40
2751;DHT22;1383;48.362;10.908;2022-08-01T03:14:11;21.90;34.20
2751;DHT22;1383;48.362;10.908;2022-08-01T03:16:40;21.90;34.50
2751;DHT22;1383;48.362;10.908;2022-08-01T03:19:10;21.90;34.40
2751;DHT22;1383;48.362;10.908;2022-08-01T03:21:39;21.80;34.80
2751;DHT22;1383;48.362;10.908;2022-08-01T03:24:08;21.80;34.70
2751;DHT22;1383;48.362;10.908;2022-08-01T03:26:36;21.80;35.00
2751;DHT22;1383;48.362;10.908;2022-08-01T03:29:16;21.80;35.00
2751;DHT22;1383;48.362;10.908;2022-08-01T03:31:44;21.70;35.10
2751;DHT22;1383;48.362;10.908;2022-08-01T03:34:12;21.70;35.20
2751;DHT22;1383;48.362;10.908;2022-08-01T03:36:48;21.70;35.20
2751;DHT22;1383;48.362;10.908;2022-08-01T03:39:17;21.70;35.40
2751;DHT22;1383;48.362;10.908;2022-08-01T03:41:50;21.60;35.60
2751;DHT22;1383;48.362;10.908;2022-08-01T03:44:25;21.60;36.50
2751;DHT22;1383;48.362;10.908;2022-08-01T03:47:09;21.50;35.80
2751;DHT22;1383;48.362;10.908;2022-08-01T03:49:42;21.50;36.00
2751;DHT22;1383;48.362;10.908;2022-08-01T03:52:09;21.50;36.10
2751;DHT22;1383;48.362;10.908;2022-08-01T03:54:41;21.40;36.40
2751;DHT22;1383;48.362;10.908;2022-08-01T03:57:10;21.30;36.70
2751;DHT22;1383;48.362;10.908;2022-08-01T03:59:58;21.30;36.70
2751;DHT22;1383;48.362;10.908;2022-08-01T04:02:26;21.30;36.80
2751;DHT22;1383;48.362;10.908;2022-08-01T04:04:54;21.30;36.80
2751;DHT22;1383;48.362;10.908;2022-08-01T04:07:22;21.30;37.20
2751;DHT22;1383;48.362;10.908;2022-08-01T04:09:50;21.30;37.20
2751;DHT22;1383;48.362;10.908;2022-08-01T04:12:17;21.40;36.90
2751;DHT22;1383;48.362;10.908;2022-08-01T04:14:44;21.40;36.80
2751;DHT22;1383;48.362;10.908;2022-08-01T04:17:11;21.40;36.60
2751;DHT22;1383;48.362;10.908;2022-08-01T04:19:38;21.40;36.50
2751;DHT22;1383;48.362;10.908;2022-08-01T04:22:05;21.50;36.60
2751;DHT22;1383;48.362;10.908;2022-08-01T04:24:35;21.50;36.30
2751;DHT22;1383;48.362;10.908;2022-08-01T04:27:06;21.60;36.40
2751;DHT22;1383;48.362;10.908;2022-08-01T04:29:35;21.60;36.40
2751;DHT22;1383;48.362;10.908;2022-08-01T04:32:03;21.60;36.20
2751;DHT22;1383;48.362;10.908;2022-08-01T04:34:31;21.60;36.40
2751;DHT22;1383;48.362;10.908;2022-08-01T04:37:00;21.60;36.40
2751;DHT22;1383;48.362;10.908;2022-08-01T04:39:30;21.70;36.30
2751;DHT22;1383;48.362;10.908;2022-08-01T04:42:16;21.70;36.10
2751;DHT22;1383;48.362;10.908;2022-08-01T04:44:51;21.80;36.30
2751;DHT22;1383;48.362;10.908;2022-08-01T04:47:18;21.80;36.20
2751;DHT22;1383;48.362;10.908;2022-08-01T04:49:46;21.90;36.10
2751;DHT22;1383;48.362;10.908;2022-08-01T04:52:15;22.00;36.60
2751;DHT22;1383;48.362;10.908;2022-08-01T04:54:50;22.00;36.80
2751;DHT22;1383;48.362;10.908;2022-08-01T04:57:17;22.00;36.10
2751;DHT22;1383;48.362;10.908;2022-08-01T04:59:44;22.10;36.00
2751;DHT22;1383;48.362;10.908;2022-08-01T05:02:13;22.20;35.90
2751;DHT22;1383;48.362;10.908;2022-08-01T05:04:41;22.30;35.60
2751;DHT22;1383;48.362;10.908;2022-08-01T05:07:08;22.40;35.50
2751;DHT22;1383;48.362;10.908;2022-08-01T05:09:36;22.50;35.00
2751;DHT22;1383;48.362;10.908;2022-08-01T05:12:05;22.50;35.80
2751;DHT22;1383;48.362;10.908;2022-08-01T05:14:33;22.50;35.00
2751;DHT22;1383;48.362;10.908;2022-08-01T05:17:02;22.60;35.00
2751;DHT22;1383;48.362;10.908;2022-08-01T05:19:31;22.60;34.80
2751;DHT22;1383;48.362;10.908;2022-08-01T05:22:02;22.60;34.70
2751;DHT22;1383;48.362;10.908;2022-08-01T05:24:35;22.70;34.80
2751;DHT22;1383;48.362;10.908;2022-08-01T05:27:06;22.70;34.40
2751;DHT22;1383;48.362;10.908;2022-08-01T05:29:37;22.70;34.60
2751;DHT22;1383;48.362;10.908;2022-08-01T05:32:10;22.70;34.30
2751;DHT22;1383;48.362;10.908;2022-08-01T05:34:37;22.80;34.30
2751;DHT22;1383;48.362;10.908;2022-08-01T05:37:04;22.90;34.40
2751;DHT22;1383;48.362;10.908;2022-08-01T05:39:31;23.00;34.30
2751;DHT22;1383;48.362;10.908;2022-08-01T05:41:57;23.10;34.30
2751;DHT22;1383;48.362;10.908;2022-08-01T05:44:24;23.30;33.70
2751;DHT22;1383;48.362;10.908;2022-08-01T05:46:51;23.40;33.60
2751;DHT22;1383;48.362;10.908;2022-08-01T05:49:18;23.60;33.20
2751;DHT22;1383;48.362;10.908;2022-08-01T05:51:45;23.90;32.50
2751;DHT22;1383;48.362;10.908;2022-08-01T05:54:12;24.20;31.90
2751;DHT22;1383;48.362;10.908;2022-08-01T05:56:39;24.60;30.90
2751;DHT22;1383;48.362;10.908;2022-08-01T05:59:06;24.90;30.00
2751;DHT22;1383;48.362;10.908;2022-08-01T06:01:33;25.20;29.70
2751;DHT22;1383;48.362;10.908;2022-08-01T06:04:00;25.40;29.30
2751;DHT22;1383;48.362;10.908;2022-08-01T06:06:27;25.60;28.70
2751;DHT22;1383;48.362;10.908;2022-08-01T06:08:53;25.70;28.40
2751;DHT22;1383;48.362;10.908;2022-08-01T06:11:20;26.00;28.20
2751;DHT22;1383;48.362;10.908;2022-08-01T06:13:47;26.30;27.70
2751;DHT22;1383;48.362;10.908;2022-08-01T06:16:15;26.40;27.30
2751;DHT22;1383;48.362;10.908;2022-08-01T06:18:42;26.60;27.20
2751;DHT22;1383;48.362;10.908;2022-08-01T06:21:09;27.00;26.40
2751;DHT22;1383;48.362;10.908;2022-08-01T06:23:36;27.10;26.30
2751;DHT22;1383;48.362;10.908;2022-08-01T06:26:03;27.40;26.10
2751;DHT22;1383;48.362;10.908;2022-08-01T06:28:30;27.50;25.60
2751;DHT22;1383;48.362;10.908;2022-08-01T06:30:57;27.60;25.30
2751;DHT22;1383;48.362;10.908;2022-08-01T06:33:26;27.60;25.50
2751;DHT22;1383;48.362;10.908;2022-08-01T06:35:53;27.80;25.60
2751;DHT22;1383;48.362;10.908;2022-08-01T06:38:20;28.10;25.20
2751;DHT22;1383;48.362;10.908;2022-08-01T06:40:47;28.20;24.50
2751;DHT22;1383;48.362;10.908;2022-08-01T06:43:14;28.10;25.50
2751;DHT22;1383;48.362;10.908;2022-08-01T06:45:41;27.90;25.20
2751;DHT22;1383;48.362;10.908;2022-08-01T06:48:09;27.70;25.60
2751;DHT22;1383;48.362;10.908;2022-08-01T06:50:36;27.60;25.70
2751;DHT22;1383;48.362;10.908;2022-08-01T06:53:03;27.50;26.10
2751;DHT22;1383;48.362;10.908;2022-08-01T06:55:30;27.80;26.30
2751;DHT22;1383;48.362;10.908;2022-08-01T06:57:57;28.10;25.30
2751;DHT22;1383;48.362;10.908;2022-08-01T07:00:25;28.40;25.20
2751;DHT22;1383;48.362;10.908;2022-08-01T07:02:55;28.50;25.00
2751;DHT22;1383;48.362;10.908;2022-08-01T07:05:23;28.80;24.80
2751;DHT22;1383;48.362;10.908;2022-08-01T07:07:50;29.10;24.30
2751;DHT22;1383;48.362;10.908;2022-08-01T07:10:17;29.10;24.20
2751;DHT22;1383;48.362;10.908;2022-08-01T07:12:44;29.20;24.00
2751;DHT22;1383;48.362;10.908;2022-08-01T07:15:11;29.50;23.70
2751;DHT22;1383;48.362;10.908;2022-08-01T07:17:39;29.40;23.60
2751;DHT22;1383;48.362;10.908;2022-08-01T07:20:10;29.50;23.50
2751;DHT22;1383;48.362;10.908;2022-08-01T07:22:41;29.40;23.40
2751;DHT22;1383;48.362;10.908;2022-08-01T07:25:09;29.50;23.40
2751;DHT22;1383;48.362;10.908;2022-08-01T07:27:36;29.70;23.40
2751;DHT22;1383;48.362;10.908;2022-08-01T07:30:04;29.90;23.00
2751;DHT22;1383;48.362;10.908;2022-08-01T07:32:31;30.20;22.80
2751;DHT22;1383;48.362;10.908;2022-08-01T07:34:58;30.20;22.50
2751;DHT22;1383;48.362;10.908;2022-08-01T07:37:25;30.30;22.50
2751;DHT22;1383;48.362;10.908;2022-08-01T07:40:13;30.40;22.00
2751;DHT22;1383;48.362;10.908;2022-08-01T07:42:39;30.60;22.20
2751;DHT22;1383;48.362;10.908;2022-08-01T07:45:11;30.70;21.70
2751;DHT22;1383;48.362;10.908;2022-08-01T07:47:38;30.70;21.70
2751;DHT22;1383;48.362;10.908;2022-08-01T07:50:05;30.80;21.80
2751;DHT22;1383;48.362;10.908;2022-08-01T07:52:33;30.80;21.50
2751;DHT22;1383;48.362;10.908;2022-08-01T07:54:59;30.70;21.50
2751;DHT22;1383;48.362;10.908;2022-08-01T07:57:26;30.80;21.80
2751;DHT22;1383;48.362;10.908;2022-08-01T07:59:53;31.00;21.50
2751;DHT22;1383;48.362;10.908;2022-08-01T08:02:20;31.20;21.60
2751;DHT22;1383;48.362;10.908;2022-08-01T08:04:47;31.40;21.20
2751;DHT22;1383;48.362;10.908;2022-08-01T08:07:15;31.50;21.00
2751;DHT22;1383;48.362;10.908;2022-08-01T08:09:42;31.50;20.70
2751;DHT22;1383;48.362;10.908;2022-08-01T08:12:09;31.70;20.40
2751;DHT22;1383;48.362;10.908;2022-08-01T08:14:36;32.00;20.30
2751;DHT22;1383;48.362;10.908;2022-08-01T08:17:03;32.30;20.00
2751;DHT22;1383;48.362;10.908;2022-08-01T08:19:31;32.20;19.30
2751;DHT22;1383;48.362;10.908;2022-08-01T08:22:05;32.30;19.60
2751;DHT22;1383;48.362;10.908;2022-08-01T08:24:32;32.40;19.20
2751;DHT22;1383;48.362;10.908;2022-08-01T08:27:00;32.40;19.30
2751;DHT22;1383;48.362;10.908;2022-08-01T08:29:28;32.60;19.00
2751;DHT22;1383;48.362;10.908;2022-08-01T08:31:57;32.60;19.20
2751;DHT22;1383;48.362;10.908;2022-08-01T08:34:26;32.40;19.50
2751;DHT22;1383;48.362;10.908;2022-08-01T08:36:53;32.50;19.40
2751;DHT22;1383;48.362;10.908;2022-08-01T08:39:22;32.70;18.90
2751;DHT22;1383;48.362;10.908;2022-08-01T08:41:49;32.50;19.10
2751;DHT22;1383;48.362;10.908;2022-08-01T08:44:16;32.50;19.10
2751;DHT22;1383;48.362;10.908;2022-08-01T08:46:46;32.60;18.90
2751;DHT22;1383;48.362;10.908;2022-08-01T08:49:17;32.90;18.50
2751;DHT22;1383;48.362;10.908;2022-08-01T08:51:47;33.20;17.50
2751;DHT22;1383;48.362;10.908;2022-08-01T08:54:17;33.30;17.90
2751;DHT22;1383;48.362;10.908;2022-08-01T08:56:46;33.20;17.30
2751;DHT22;1383;48.362;10.908;2022-08-01T08:59:13;33.00;17.30
2751;DHT22;1383;48.362;10.908;2022-08-01T09:01:41;33.10;17.50
2751;DHT22;1383;48.362;10.908;2022-08-01T09:04:09;33.30;17.20
2751;DHT22;1383;48.362;10.908;2022-08-01T09:06:37;33.20;16.70
2751;DHT22;1383;48.362;10.908;2022-08-01T09:09:05;33.30;17.00
2751;DHT22;1383;48.362;10.908;2022-08-01T09:11:32;33.20;16.80
2751;DHT22;1383;48.362;10.908;2022-08-01T09:14:17;33.40;16.90
2751;DHT22;1383;48.362;10.908;2022-08-01T09:17:08;33.40;16.40
2751;DHT22;1383;48.362;10.908;2022-08-01T09:19:41;32.80;16.80
2751;DHT22;1383;48.362;10.908;2022-08-01T09:22:10;32.90;17.00
2751;DHT22;1383;48.362;10.908;2022-08-01T09:24:38;33.00;17.20
2751;DHT22;1383;48.362;10.908;2022-08-01T09:27:20;33.30;16.50
2751;DHT22;1383;48.362;10.908;2022-08-01T09:29:51;33.40;16.70
2751;DHT22;1383;48.362;10.908;2022-08-01T09:32:29;33.50;16.80
2751;DHT22;1383;48.362;10.908;2022-08-01T09:35:32;33.30;16.60
2751;DHT22;1383;48.362;10.908;2022-08-01T09:38:16;33.20;16.00
2751;DHT22;1383;48.362;10.908;2022-08-01T09:40:53;32.90;16.80
2751;DHT22;1383;48.362;10.908;2022-08-01T09:43:24;32.50;16.90
2751;DHT22;1383;48.362;10.908;2022-08-01T09:45:53;32.60;17.20
2751;DHT22;1383;48.362;10.908;2022-08-01T09:48:21;33.00;16.40
2751;DHT22;1383;48.362;10.908;2022-08-01T09:50:54;33.10;16.20
2751;DHT22;1383;48.362;10.908;2022-08-01T09:53:44;32.80;16.60
2751;DHT22;1383;48.362;10.908;2022-08-01T09:56:17;32.90;16.40
2751;DHT22;1383;48.362;10.908;2022-08-01T09:58:51;32.90;16.40
2751;DHT22;1383;48.362;10.908;2022-08-01T10:01:26;32.60;16.90
2751;DHT22;1383;48.362;10.908;2022-08-01T10:04:22;32.10;17.40
2751;DHT22;1383;48.362;10.908;2022-08-01T10:06:51;32.20;17.20
2751;DHT22;1383;48.362;10.908;2022-08-01T10:09:32;32.30;17.10
2751;DHT22;1383;48.362;10.908;2022-08-01T10:12:07;32.50;16.70
2751;DHT22;1383;48.362;10.908;2022-08-01T10:14:43;32.90;16.70
2751;DHT22;1383;48.362;10.908;2022-08-01T10:17:16;33.00;16.10
2751;DHT22;1383;48.362;10.908;2022-08-01T10:19:46;33.20;16.00
2751;DHT22;1383;48.362;10.908;2022-08-01T10:22:18;33.10;16.10
2751;DHT22;1383;48.362;10.908;2022-08-01T10:24:50;33.20;16.30
2751;DHT22;1383;48.362;10.908;2022-08-01T10:27:21;32.90;16.80
2751;DHT22;1383;48.362;10.908;2022-08-01T10:30:04;33.10;16.00
2751;DHT22;1383;48.362;10.908;2022-08-01T10:32:47;33.20;15.50
2751;DHT22;1383;48.362;10.908;2022-08-01T10:35:16;33.10;15.60
2751;DHT22;1383;48.362;10.908;2022-08-01T10:38:04;33.30;15.60
2751;DHT22;1383;48.362;10.908;2022-08-01T10:40:37;33.50;15.40
2751;DHT22;1383;48.362;10.908;2022-08-01T10:43:05;33.60;15.00
2751;DHT22;1383;48.362;10.908;2022-08-01T10:45:33;33.60;14.90
2751;DHT22;1383;48.362;10.908;2022-08-01T10:48:09;33.80;14.80
2751;DHT22;1383;48.362;10.908;2022-08-01T10:50:44;34.40;14.00
2751;DHT22;1383;48.362;10.908;2022-08-01T10:53:19;34.60;13.60
2751;DHT22;1383;48.362;10.908;2022-08-01T10:58:34;34.10;13.80
2751;DHT22;1383;48.362;10.908;2022-08-01T11:01:19;33.70;14.10
2751;DHT22;1383;48.362;10.908;2022-08-01T11:03:57;33.30;14.90
2751;DHT22;1383;48.362;10.908;2022-08-01T11:06:36;33.10;14.80
2751;DHT22;1383;48.362;10.908;2022-08-01T11:09:26;33.10;14.90
2751;DHT22;1383;48.362;10.908;2022-08-01T11:12:16;32.50;15.40
2751;DHT22;1383;48.362;10.908;2022-08-01T11:17:38;31.80;16.10
2751;DHT22;1383;48.362;10.908;2022-08-01T11:20:14;31.50;16.30
2751;DHT22;1383;48.362;10.908;2022-08-01T11:28:24;30.80;17.00
2751;DHT22;1383;48.362;10.908;2022-08-01T11:46:58;29.10;21.80
2751;DHT22;1383;48.362;10.908;2022-08-01T11:54:37;28.90;21.70
2751;DHT22;1383;48.362;10.908;2022-08-01T11:57:13;28.80;22.00
2751;DHT22;1383;48.362;10.908;2022-08-01T11:59:43;28.80;22.20
2751;DHT22;1383;48.362;10.908;2022-08-01T12:02:31;28.80;22.30
2751;DHT22;1383;48.362;10.908;2022-08-01T12:05:10;28.70;22.50
2751;DHT22;1383;48.362;10.908;2022-08-01T12:07:41;28.60;22.20
2751;DHT22;1383;48.362;10.908;2022-08-01T12:10:14;28.60;22.40
2751;DHT22;1383;48.362;10.908;2022-08-01T12:12:48;28.70;22.70
2751;DHT22;1383;48.362;10.908;2022-08-01T12:15:15;28.60;22.40
2751;DHT22;1383;48.362;10.908;2022-08-01T12:17:44;28.70;22.20
2751;DHT22;1383;48.362;10.908;2022-08-01T12:20:29;28.90;22.10
2751;DHT22;1383;48.362;10.908;2022-08-01T12:23:00;29.00;22.00
2751;DHT22;1383;48.362;10.908;2022-08-01T12:25:28;29.10;22.00
2751;DHT22;1383;48.362;10.908;2022-08-01T12:27:59;29.00;22.10
2751;DHT22;1383;48.362;10.908;2022-08-01T12:30:27;29.00;22.10
2751;DHT22;1383;48.362;10.908;2022-08-01T12:32:55;29.00;22.10
2751;DHT22;1383;48.362;10.908;2022-08-01T12:35:27;29.00;22.30
2751;DHT22;1383;48.362;10.908;2022-08-01T12:37:57;29.10;21.70
2751;DHT22;1383;48.362;10.908;2022-08-01T12:40:41;29.20;21.30
2751;DHT22;1383;48.362;10.908;2022-08-01T12:43:16;29.20;21.90
2751;DHT22;1383;48.362;10.908;2022-08-01T12:45:56;29.00;22.10
2751;DHT22;1383;48.362;10.908;2022-08-01T12:48:25;29.10;22.20
2751;DHT22;1383;48.362;10.908;2022-08-01T12:50:53;29.20;22.50
2751;DHT22;1383;48.362;10.908;2022-08-01T12:53:22;29.30;22.10
2751;DHT22;1383;48.362;10.908;2022-08-01T12:55:51;29.30;22.10
2751;DHT22;1383;48.362;10.908;2022-08-01T12:58:32;29.40;22.10
2751;DHT22;1383;48.362;10.908;2022-08-01T13:01:08;29.50;21.70
2751;DHT22;1383;48.362;10.908;2022-08-01T13:03:36;29.60;21.60
2751;DHT22;1383;48.362;10.908;2022-08-01T13:06:14;29.80;21.30
2751;DHT22;1383;48.362;10.908;2022-08-01T13:08:43;29.90;20.70
2751;DHT22;1383;48.362;10.908;2022-08-01T13:11:13;29.90;20.10
2751;DHT22;1383;48.362;10.908;2022-08-01T13:13:48;29.80;20.10
2751;DHT22;1383;48.362;10.908;2022-08-01T13:16:25;29.80;20.00
2751;DHT22;1383;48.362;10.908;2022-08-01T13:19:13;29.90;19.90
2751;DHT22;1383;48.362;10.908;2022-08-01T13:21:56;29.80;19.90
2751;DHT22;1383;48.362;10.908;2022-08-01T13:24:32;29.80;19.80
2751;DHT22;1383;48.362;10.908;2022-08-01T13:27:01;29.70;20.00
2751;DHT22;1383;48.362;10.908;2022-08-01T13:29:38;29.60;20.10
2751;DHT22;1383;48.362;10.908;2022-08-01T13:32:19;29.60;20.30
2751;DHT22;1383;48.362;10.908;2022-08-01T13:35:06;29.60;20.00
2751;DHT22;1383;48.362;10.908;2022-08-01T13:37:35;29.50;20.00
2751;DHT22;1383;48.362;10.908;2022-08-01T13:40:05;29.50;20.20
2751;DHT22;1383;48.362;10.908;2022-08-01T13:42:32;29.40;20.10
2751;DHT22;1383;48.362;10.908;2022-08-01T13:44:59;29.20;22.50
2751;DHT22;1383;48.362;10.908;2022-08-01T13:47:26;28.80;26.30
2751;DHT22;1383;48.362;10.908;2022-08-01T13:49:59;28.10;29.10
2751;DHT22;1383;48.362;10.908;2022-08-01T13:52:29;27.10;34.40
2751;DHT22;1383;48.362;10.908;2022-08-01T13:54:58;26.30;38.50
2751;DHT22;1383;48.362;10.908;2022-08-01T13:57:25;25.70;42.00
2751;DHT22;1383;48.362;10.908;2022-08-01T14:00:04;24.90;50.70
2751;DHT22;1383;48.362;10.908;2022-08-01T14:02:32;24.20;52.00
2751;DHT22;1383;48.362;10.908;2022-08-01T14:04:58;23.30;55.20
2751;DHT22;1383;48.362;10.908;2022-08-01T14:07:25;22.60;60.00
2751;DHT22;1383;48.362;10.908;2022-08-01T14:09:54;21.90;68.10
2751;DHT22;1383;48.362;10.908;2022-08-01T14:12:41;21.40;69.80
2751;DHT22;1383;48.362;10.908;2022-08-01T14:15:11;20.90;71.40
2751;DHT22;1383;48.362;10.908;2022-08-01T14:17:39;20.70;75.90
2751;DHT22;1383;48.362;10.908;2022-08-01T14:20:13;20.50;82.30
2751;DHT22;1383;48.362;10.908;2022-08-01T14:22:40;20.20;87.90
2751;DHT22;1383;48.362;10.908;2022-08-01T14:25:07;20.00;91.20
2751;DHT22;1383;48.362;10.908;2022-08-01T14:27:34;20.00;93.10
2751;DHT22;1383;48.362;10.908;2022-08-01T14:30:03;20.00;93.80
2751;DHT22;1383;48.362;10.908;2022-08-01T14:32:31;20.10;93.60
2751;DHT22;1383;48.362;10.908;2022-08-01T14:35:01;20.10;93.40
2751;DHT22;1383;48.362;10.908;2022-08-01T14:37:28;20.20;93.00
2751;DHT22;1383;48.362;10.908;2022-08-01T14:40:00;20.20;93.30
2751;DHT22;1383;48.362;10.908;2022-08-01T14:42:33;20.30;93.60
2751;DHT22;1383;48.362;10.908;2022-08-01T14:45:00;20.50;95.90
2751;DHT22;1383;48.362;10.908;2022-08-01T14:47:27;20.60;95.00
2751;DHT22;1383;48.362;10.908;2022-08-01T14:49:53;20.60;94.20
2751;DHT22;1383;48.362;10.908;2022-08-01T14:52:21;20.80;95.10
2751;DHT22;1383;48.362;10.908;2022-08-01T14:54:48;21.00;95.30
2751;DHT22;1383;48.362;10.908;2022-08-01T14:57:15;21.20;94.00
2751;DHT22;1383;48.362;10.908;2022-08-01T14:59:44;21.40;92.10
2751;DHT22;1383;48.362;10.908;2022-08-01T15:02:11;21.50;86.60
2751;DHT22;1383;48.362;10.908;2022-08-01T15:04:39;21.80;90.10
2751;DHT22;1383;48.362;10.908;2022-08-01T15:07:06;22.10;90.50
2751;DHT22;1383;48.362;10.908;2022-08-01T15:09:33;22.40;87.50
2751;DHT22;1383;48.362;10.908;2022-08-01T15:12:00;22.60;79.60
2751;DHT22;1383;48.362;10.908;2022-08-01T15:14:26;22.80;75.80
2751;DHT22;1383;48.362;10.908;2022-08-01T15:17:12;23.00;70.50
2751;DHT22;1383;48.362;10.908;2022-08-01T15:19:39;23.00;71.00
2751;DHT22;1383;48.362;10.908;2022-08-01T15:22:08;23.00;70.40
2751;DHT22;1383;48.362;10.908;2022-08-01T15:24:35;23.00;69.10
2751;DHT22;1383;48.362;10.908;2022-08-01T15:27:02;23.00;73.70
2751;DHT22;1383;48.362;10.908;2022-08-01T15:29:29;23.10;80.40
2751;DHT22;1383;48.362;10.908;2022-08-01T15:31:56;23.30;85.50
2751;DHT22;1383;48.362;10.908;2022-08-01T15:34:23;23.40;84.70
2751;DHT22;1383;48.362;10.908;2022-08-01T15:36:52;23.50;83.00
2751;DHT22;1383;48.362;10.908;2022-08-01T15:39:19;23.60;81.30
2751;DHT22;1383;48.362;10.908;2022-08-01T15:41:46;23.70;76.90
2751;DHT22;1383;48.362;10.908;2022-08-01T15:44:13;23.70;74.20
2751;DHT22;1383;48.362;10.908;2022-08-01T15:46:40;23.70;73.80
2751;DHT22;1383;48.362;10.908;2022-08-01T15:49:07;23.80;76.80
2751;DHT22;1383;48.362;10.908;2022-08-01T15:51:34;23.80;76.60
2751;DHT22;1383;48.362;10.908;2022-08-01T15:54:01;23.90;76.70
2751;DHT22;1383;48.362;10.908;2022-08-01T15:56:29;23.90;76.60
2751;DHT22;1383;48.362;10.908;2022-08-01T15:58:56;23.90;76.70
2751;DHT22;1383;48.362;10.908;2022-08-01T16:01:23;24.00;79.00
2751;DHT22;1383;48.362;10.908;2022-08-01T16:03:53;24.00;74.90
2751;DHT22;1383;48.362;10.908;2022-08-01T16:06:20;24.10;70.40
2751;DHT22;1383;48.362;10.908;2022-08-01T16:08:47;24.20;64.30
2751;DHT22;1383;48.362;10.908;2022-08-01T16:11:14;24.20;60.30
2751;DHT22;1383;48.362;10.908;2022-08-01T16:13:40;24.20;59.60
2751;DHT22;1383;48.362;10.908;2022-08-01T16:16:07;24.30;60.00
2751;DHT22;1383;48.362;10.908;2022-08-01T16:18:35;24.40;57.20
2751;DHT22;1383;48.362;10.908;2022-08-01T16:21:02;24.50;56.40
2751;DHT22;1383;48.362;10.908;2022-08-01T16:23:30;24.50;54.30
2751;DHT22;1383;48.362;10.908;2022-08-01T16:25:57;24.40;51.50
2751;DHT22;1383;48.362;10.908;2022-08-01T16:28:23;24.40;51.40
2751;DHT22;1383;48.362;10.908;2022-08-01T16:30:50;24.30;49.70
2751;DHT22;1383;48.362;10.908;2022-08-01T16:33:37;24.20;50.50
2751;DHT22;1383;48.362;10.908;2022-08-01T16:36:20;24.00;51.50
2751;DHT22;1383;48.362;10.908;2022-08-01T16:38:50;24.00;56.30
2751;DHT22;1383;48.362;10.908;2022-08-01T16:41:17;24.00;52.80
2751;DHT22;1383;48.362;10.908;2022-08-01T16:43:47;23.80;50.60